createdAt,value
2024-02-20T00:00:07.608Z,28.73
2024-02-20T00:02:44.653Z,34.30
2024-02-20T00:05:12.156Z,28.42
2024-02-20T00:07:40.102Z,31.90
2024-02-20T00:10:15.057Z,26.52
2024-02-20T00:12:43.618Z,32.28
2024-02-20T00:15:10.659Z,36.65
2024-02-20T00:17:41.404Z,37.80
2024-02-20T00:20:09.732Z,31.20
2024-02-20T00:22:37.031Z,31.02
2024-02-20T00:25:05.033Z,32.65
2024-02-20T00:27:33.061Z,36.90
2024-02-20T00:30:00.260Z,33.38
2024-02-20T00:32:27.319Z,41.08
2024-02-20T00:34:54.185Z,31.35
2024-02-20T00:37:21.640Z,29.80
2024-02-20T00:39:48.647Z,47.30
2024-02-20T00:42:15.549Z,31.65
2024-02-20T00:44:42.384Z,37.47
2024-02-20T00:47:11.312Z,34.10
2024-02-20T00:49:41.729Z,24.92
2024-02-20T00:52:09.013Z,26.52
2024-02-20T00:54:42.042Z,38.60
2024-02-20T00:57:10.556Z,25.65
2024-02-20T00:59:37.494Z,27.92
2024-02-20T01:02:05.491Z,23.80
2024-02-20T01:04:32.309Z,23.98
2024-02-20T01:06:59.132Z,37.58
2024-02-20T01:09:25.833Z,29.45
2024-02-20T01:11:52.516Z,19.80
2024-02-20T01:14:19.145Z,23.48
2024-02-20T01:16:45.914Z,28.08
2024-02-20T01:19:12.822Z,18.27
2024-02-20T01:21:39.582Z,21.92
2024-02-20T01:24:06.643Z,25.50
2024-02-20T01:26:33.409Z,26.13
2024-02-20T01:29:00.133Z,26.25
2024-02-20T01:31:26.967Z,22.63
2024-02-20T01:33:54.988Z,23.67
2024-02-20T01:36:21.765Z,22.52
2024-02-20T01:38:48.560Z,23.60
2024-02-20T01:41:15.265Z,24.70
2024-02-20T01:43:41.947Z,23.17
2024-02-20T01:46:09.814Z,32.63
2024-02-20T01:48:36.853Z,31.52
2024-02-20T01:51:03.880Z,24.45
2024-02-20T01:53:31.521Z,26.92
2024-02-20T01:56:01.934Z,28.90
2024-02-20T01:58:29.349Z,30.27
2024-02-20T02:05:34.310Z,21.45
2024-02-20T02:08:01.324Z,35.13
2024-02-20T02:10:28.199Z,29.90
2024-02-20T02:12:55.011Z,25.80
2024-02-20T02:15:21.732Z,37.90
2024-02-20T02:17:48.535Z,38.50
2024-02-20T02:20:15.400Z,23.90
2024-02-20T02:22:42.203Z,43.70
2024-02-20T02:25:09.436Z,32.80
2024-02-20T02:27:39.275Z,27.17
2024-02-20T02:30:08.936Z,29.23
2024-02-20T02:32:36.220Z,25.83
2024-02-20T02:35:03.910Z,37.80
2024-02-20T02:37:30.736Z,36.85
2024-02-20T02:39:57.495Z,36.47
2024-02-20T02:42:24.276Z,31.55
2024-02-20T02:44:50.963Z,25.92
2024-02-20T02:47:17.642Z,31.92
2024-02-20T02:49:44.461Z,23.48
2024-02-20T02:52:11.243Z,30.02
2024-02-20T02:54:37.923Z,26.23
2024-02-20T02:57:05.112Z,45.25
2024-02-20T02:59:31.846Z,34.90
2024-02-20T03:01:58.661Z,38.78
2024-02-20T03:04:25.407Z,32.47
2024-02-20T03:06:52.147Z,35.78
2024-02-20T03:09:19.621Z,34.38
2024-02-20T03:11:46.293Z,39.08
2024-02-20T03:14:13.482Z,38.53
2024-02-20T03:16:41.249Z,37.08
2024-02-20T03:19:08.137Z,33.53
2024-02-20T03:21:36.488Z,41.40
2024-02-20T03:24:05.853Z,38.45
2024-02-20T03:26:32.531Z,28.67
2024-02-20T03:28:59.241Z,26.58
2024-02-20T03:31:25.956Z,26.85
2024-02-20T03:33:53.278Z,48.20
2024-02-20T03:36:20.042Z,32.33
2024-02-20T03:38:46.709Z,35.20
2024-02-20T03:41:13.405Z,33.05
2024-02-20T03:43:40.418Z,37.40
2024-02-20T03:46:07.414Z,29.40
2024-02-20T03:48:34.512Z,33.17
2024-02-20T03:51:01.844Z,32.50
2024-02-20T03:53:29.203Z,27.67
2024-02-20T03:55:56.061Z,31.33
2024-02-20T03:58:22.881Z,27.25
2024-02-20T04:00:49.698Z,22.88
2024-02-20T04:03:16.621Z,29.45
2024-02-20T04:05:43.370Z,26.58
2024-02-20T04:08:10.042Z,37.67
2024-02-20T04:10:36.736Z,33.95
2024-02-20T04:13:03.543Z,38.20
2024-02-20T04:15:30.385Z,37.33
2024-02-20T04:17:57.100Z,24.65
2024-02-20T04:20:23.988Z,20.45
2024-02-20T04:22:50.634Z,32.78
2024-02-20T04:25:17.342Z,27.77
2024-02-20T04:27:46.161Z,30.52
2024-02-20T04:30:13.323Z,26.55
2024-02-20T04:32:40.282Z,22.10
2024-02-20T04:35:07.792Z,30.98
2024-02-20T04:37:34.935Z,26.80
2024-02-20T04:40:01.974Z,36.53
2024-02-20T04:42:28.999Z,23.85
2024-02-20T04:44:55.670Z,22.92
2024-02-20T04:47:24.288Z,27.95
2024-02-20T04:49:53.443Z,28.42
2024-02-20T04:52:20.530Z,22.23
2024-02-20T04:54:47.396Z,32.17
2024-02-20T04:57:14.189Z,37.08
2024-02-20T04:59:45.371Z,27.42
2024-02-20T05:02:14.369Z,30.40
2024-02-20T05:04:41.147Z,23.05
2024-02-20T05:07:08.181Z,29.50
2024-02-20T05:09:34.902Z,30.20
2024-02-20T05:12:01.631Z,29.52
2024-02-20T05:14:28.990Z,28.38
2024-02-20T05:16:55.726Z,39.50
2024-02-20T05:19:22.503Z,28.50
2024-02-20T05:21:49.258Z,37.22
2024-02-20T05:24:15.907Z,26.40
2024-02-20T05:26:42.653Z,29.15
2024-02-20T05:29:09.402Z,35.83
2024-02-20T05:31:36.271Z,25.33
2024-02-20T05:34:04.611Z,40.60
2024-02-20T05:36:32.466Z,33.03
2024-02-20T05:39:02.985Z,26.00
2024-02-20T05:41:31.842Z,30.90
2024-02-20T05:44:00.811Z,28.73
2024-02-20T05:46:30.146Z,36.30
2024-02-20T05:48:57.741Z,32.25
2024-02-20T05:51:25.946Z,34.83
2024-02-20T05:53:53.023Z,33.85
2024-02-20T05:56:24.519Z,40.42
2024-02-20T05:58:51.261Z,37.55
2024-02-20T06:01:18.455Z,42.20
2024-02-20T06:03:46.355Z,35.20
2024-02-20T06:06:14.343Z,38.67
2024-02-20T06:08:44.106Z,30.40
2024-02-20T06:11:14.786Z,50.22
2024-02-20T06:13:42.516Z,26.33
2024-02-20T06:16:09.749Z,31.73
2024-02-20T06:18:36.649Z,35.58
2024-02-20T06:21:03.884Z,38.03
2024-02-20T06:23:30.601Z,42.20
2024-02-20T06:25:57.339Z,41.33
2024-02-20T06:28:24.116Z,45.17
2024-02-20T06:30:51.457Z,44.60
2024-02-20T06:33:18.384Z,42.78
2024-02-20T06:35:45.383Z,38.90
2024-02-20T06:38:12.072Z,46.58
2024-02-20T06:40:39.078Z,45.22
2024-02-20T06:43:05.794Z,40.95
2024-02-20T06:45:32.457Z,46.08
2024-02-20T06:47:59.215Z,42.42
2024-02-20T06:50:25.920Z,52.20
2024-02-20T06:52:55.483Z,40.88
2024-02-20T06:55:22.297Z,63.50
2024-02-20T06:57:49.291Z,40.33
2024-02-20T07:00:16.848Z,37.80
2024-02-20T07:02:43.809Z,38.03
2024-02-20T07:05:12.043Z,50.83
2024-02-20T07:07:39.652Z,41.25
2024-02-20T07:10:08.423Z,30.52
2024-02-20T07:12:35.654Z,35.47
2024-02-20T07:15:04.326Z,40.33
2024-02-20T07:17:31.282Z,39.58
2024-02-20T07:19:58.133Z,45.25
2024-02-20T07:22:25.753Z,33.72
2024-02-20T07:24:52.546Z,34.60
2024-02-20T07:27:19.498Z,31.05
2024-02-20T07:29:47.547Z,55.03
2024-02-20T07:32:14.285Z,46.03
2024-02-20T07:34:42.124Z,32.15
2024-02-20T07:37:09.068Z,39.22
2024-02-20T07:39:37.776Z,43.55
2024-02-20T07:42:06.734Z,48.38
2024-02-20T07:44:33.357Z,44.65
2024-02-20T07:47:00.191Z,48.55
2024-02-20T07:49:27.325Z,38.88
2024-02-20T07:51:54.134Z,45.33
2024-02-20T07:54:20.795Z,43.08
2024-02-20T07:56:48.573Z,35.22
2024-02-20T07:59:18.080Z,40.55
2024-02-20T08:01:54.317Z,39.60
2024-02-20T08:04:21.508Z,42.03
2024-02-20T08:06:48.564Z,35.03
2024-02-20T08:09:15.508Z,49.60
2024-02-20T08:11:42.605Z,41.80
2024-02-20T08:14:10.526Z,40.58
2024-02-20T08:16:38.702Z,51.97
2024-02-20T08:19:05.828Z,43.28
2024-02-20T08:21:33.521Z,37.05
2024-02-20T08:24:01.460Z,39.22
2024-02-20T08:26:28.473Z,37.42
2024-02-20T08:28:55.339Z,32.83
2024-02-20T08:31:22.114Z,36.40
2024-02-20T08:33:49.536Z,39.30
2024-02-20T08:36:18.756Z,34.80
2024-02-20T08:38:49.365Z,38.65
2024-02-20T08:41:16.214Z,41.08
2024-02-20T08:43:46.053Z,37.88
2024-02-20T08:46:12.774Z,36.80
2024-02-20T08:48:39.495Z,31.40
2024-02-20T08:51:06.210Z,27.38
2024-02-20T08:53:32.908Z,32.17
2024-02-20T08:55:59.777Z,33.80
2024-02-20T08:58:26.786Z,33.85
2024-02-20T09:00:53.841Z,45.85
2024-02-20T09:03:20.683Z,35.67
2024-02-20T09:05:47.815Z,30.90
2024-02-20T09:08:15.970Z,40.72
2024-02-20T09:10:42.769Z,40.85
2024-02-20T09:13:09.534Z,32.53
2024-02-20T09:15:36.953Z,39.45
2024-02-20T09:18:04.792Z,35.90
2024-02-20T09:20:31.780Z,35.63
2024-02-20T09:22:58.569Z,32.20
2024-02-20T09:25:25.376Z,32.90
2024-02-20T09:27:52.071Z,38.78
2024-02-20T09:30:18.898Z,39.08
2024-02-20T09:32:46.123Z,35.15
2024-02-20T09:35:13.390Z,39.70
2024-02-20T09:37:40.220Z,35.92
2024-02-20T09:40:09.536Z,31.27
2024-02-20T09:42:48.166Z,37.40
2024-02-20T09:45:24.998Z,32.22
2024-02-20T09:47:55.720Z,34.25
2024-02-20T09:50:24.431Z,37.42
2024-02-20T09:52:54.948Z,38.47
2024-02-20T09:55:25.274Z,39.97
2024-02-20T09:57:52.729Z,31.48
2024-02-20T10:00:21.216Z,41.90
2024-02-20T10:02:49.893Z,32.00
2024-02-20T10:05:18.393Z,35.83
2024-02-20T10:07:46.419Z,37.05
2024-02-20T10:10:17.553Z,34.88
2024-02-20T10:12:45.740Z,44.35
2024-02-20T10:15:14.468Z,39.42
2024-02-20T10:17:41.487Z,41.75
2024-02-20T10:20:14.093Z,48.65
2024-02-20T10:22:45.385Z,42.90
2024-02-20T10:25:15.150Z,38.50
2024-02-20T10:27:42.942Z,33.83
2024-02-20T10:30:10.339Z,42.60
2024-02-20T10:32:38.980Z,38.55
2024-02-20T10:35:10.760Z,43.92
2024-02-20T10:37:39.511Z,50.25
2024-02-20T10:40:22.107Z,37.45
2024-02-20T10:42:59.353Z,52.85
2024-02-20T10:45:28.343Z,40.92
2024-02-20T10:47:59.480Z,41.08
2024-02-20T10:50:26.923Z,40.15
2024-02-20T10:53:00.997Z,36.80
2024-02-20T10:55:33.189Z,41.53
2024-02-20T10:58:05.230Z,45.10
2024-02-20T11:00:36.469Z,42.05
2024-02-20T11:03:06.645Z,37.65
2024-02-20T11:05:33.966Z,42.00
2024-02-20T11:08:12.482Z,48.50
2024-02-20T11:10:41.672Z,39.42
2024-02-20T11:13:29.879Z,36.47
2024-02-20T11:15:56.681Z,34.83
2024-02-20T11:18:25.829Z,36.78
2024-02-20T11:21:04.445Z,36.20
2024-02-20T11:23:32.776Z,37.38
2024-02-20T11:26:08.828Z,35.38
2024-02-20T11:28:37.400Z,39.35
2024-02-20T11:31:05.419Z,32.72
2024-02-20T11:33:33.093Z,35.72
2024-02-20T11:36:00.968Z,36.92
2024-02-20T11:38:31.249Z,35.65
2024-02-20T11:40:58.027Z,32.00
2024-02-20T11:43:27.003Z,28.45
2024-02-20T11:46:01.510Z,28.63
2024-02-20T11:48:32.561Z,34.08
2024-02-20T11:51:00.713Z,31.33
2024-02-20T11:53:27.798Z,31.80
2024-02-20T11:55:56.152Z,31.33
2024-02-20T11:58:27.655Z,37.15
2024-02-20T12:01:04.486Z,30.27
2024-02-20T12:03:38.204Z,34.03
2024-02-20T12:06:11.316Z,24.90
2024-02-20T12:08:43.075Z,32.53
2024-02-20T12:11:15.258Z,21.33
2024-02-20T12:13:42.523Z,27.80
2024-02-20T12:16:21.430Z,34.42
2024-02-20T12:18:50.263Z,24.50
2024-02-20T12:21:18.053Z,23.95
2024-02-20T12:23:55.512Z,20.77
2024-02-20T12:26:23.193Z,31.58
2024-02-20T12:28:50.787Z,22.40
2024-02-20T12:31:31.603Z,20.30
2024-02-20T12:34:00.881Z,34.10
2024-02-20T12:36:30.462Z,23.95
2024-02-20T12:38:58.088Z,24.30
2024-02-20T12:41:24.967Z,24.13
2024-02-20T12:43:52.148Z,26.92
2024-02-20T12:46:19.023Z,23.52
2024-02-20T12:48:54.975Z,17.40
2024-02-20T12:51:23.046Z,20.27
2024-02-20T12:53:50.007Z,23.85
2024-02-20T12:56:16.708Z,20.98
2024-02-20T12:58:46.935Z,19.02
2024-02-20T13:01:15.539Z,25.83
2024-02-20T13:03:42.770Z,27.08
2024-02-20T13:06:09.895Z,20.15
2024-02-20T13:08:36.677Z,23.52
2024-02-20T13:11:03.733Z,23.02
2024-02-20T13:13:30.515Z,22.67
2024-02-20T13:15:57.322Z,22.15
2024-02-20T13:18:24.108Z,20.05
2024-02-20T13:20:51.140Z,20.75
2024-02-20T13:23:17.837Z,18.58
2024-02-20T13:25:45.598Z,21.70
2024-02-20T13:28:15.182Z,25.88
2024-02-20T13:30:43.195Z,20.73
2024-02-20T13:33:09.950Z,20.10
2024-02-20T13:35:36.780Z,27.38
2024-02-20T13:38:03.834Z,22.25
2024-02-20T13:40:30.776Z,28.08
2024-02-20T13:42:58.579Z,24.88
2024-02-20T13:45:25.354Z,21.95
2024-02-20T13:47:52.426Z,20.85
2024-02-20T13:50:19.289Z,27.67
2024-02-20T13:52:46.018Z,20.85
2024-02-20T13:55:15.362Z,15.07
2024-02-20T13:57:42.283Z,16.83
2024-02-20T14:00:09.912Z,20.25
2024-02-20T14:02:42.373Z,17.88
2024-02-20T14:05:09.476Z,16.58
2024-02-20T14:07:36.489Z,14.73
2024-02-20T14:10:04.561Z,13.38
2024-02-20T14:12:31.423Z,15.30
2024-02-20T14:14:59.620Z,22.92
2024-02-20T14:17:28.111Z,19.77
2024-02-20T14:19:55.093Z,19.55
2024-02-20T14:22:23.256Z,16.02
2024-02-20T14:24:50.021Z,17.10
2024-02-20T14:27:16.683Z,20.15
2024-02-20T14:29:43.375Z,16.67
2024-02-20T14:32:10.934Z,22.50
2024-02-20T14:34:37.977Z,19.58
2024-02-20T14:37:08.104Z,18.33
2024-02-20T14:39:36.055Z,7.05
2024-02-20T14:42:03.013Z,15.85
2024-02-20T14:44:29.742Z,21.17
2024-02-20T14:46:56.852Z,13.68
2024-02-20T14:49:25.774Z,15.25
2024-02-20T14:51:52.607Z,10.48
2024-02-20T14:54:20.671Z,12.18
2024-02-20T14:56:49.877Z,21.55
2024-02-20T14:59:17.162Z,28.30
2024-02-20T15:01:48.082Z,11.60
2024-02-20T15:04:15.260Z,16.73
2024-02-20T15:06:44.254Z,13.05
2024-02-20T15:09:11.642Z,18.58
2024-02-20T15:11:39.692Z,15.70
2024-02-20T15:14:06.564Z,15.68
2024-02-20T15:16:33.357Z,18.90
2024-02-20T15:19:00.099Z,17.27
2024-02-20T15:21:26.974Z,21.38
2024-02-20T15:23:53.761Z,15.95
2024-02-20T15:26:20.479Z,13.27
2024-02-20T15:28:48.648Z,24.65
2024-02-20T15:31:15.464Z,15.57
2024-02-20T15:33:42.499Z,16.65
2024-02-20T15:36:11.410Z,12.88
2024-02-20T15:38:38.363Z,15.15
2024-02-20T15:41:06.309Z,14.75
2024-02-20T15:43:34.267Z,13.38
2024-02-20T15:46:01.122Z,17.23
2024-02-20T15:48:27.855Z,19.35
2024-02-20T15:50:55.212Z,17.98
2024-02-20T15:53:23.551Z,18.30
2024-02-20T15:55:51.696Z,18.23
2024-02-20T16:00:52.257Z,15.32
2024-02-20T16:03:19.129Z,17.02
2024-02-20T16:05:46.683Z,14.60
2024-02-20T16:08:16.533Z,15.70
2024-02-20T16:10:43.726Z,17.40
2024-02-20T16:13:10.598Z,20.77
2024-02-20T16:15:37.423Z,16.35
2024-02-20T16:18:04.412Z,17.40
2024-02-20T16:20:31.296Z,14.50
2024-02-20T16:23:00.061Z,16.98
2024-02-20T16:25:27.441Z,22.70
2024-02-20T16:27:54.910Z,13.00
2024-02-20T16:30:21.797Z,16.25
2024-02-20T16:32:48.827Z,17.13
2024-02-20T16:35:16.122Z,16.83
2024-02-20T16:37:43.148Z,12.70
2024-02-20T16:40:11.160Z,17.83
2024-02-20T16:42:38.300Z,18.77
2024-02-20T16:45:06.203Z,22.15
2024-02-20T16:47:35.443Z,30.33
2024-02-20T16:50:03.058Z,24.40
2024-02-20T16:52:29.973Z,23.02
2024-02-20T16:54:57.506Z,13.27
2024-02-20T16:57:24.309Z,15.90
2024-02-20T16:59:52.718Z,17.17
2024-02-20T17:02:19.582Z,14.60
2024-02-20T17:04:46.647Z,12.82
2024-02-20T17:07:17.428Z,24.02
2024-02-20T17:09:49.382Z,20.33
2024-02-20T17:12:16.733Z,18.63
2024-02-20T17:14:45.112Z,14.05
2024-02-20T17:17:11.836Z,16.33
2024-02-20T17:19:38.977Z,19.77
2024-02-20T17:22:06.108Z,20.88
2024-02-20T17:24:32.988Z,15.27
2024-02-20T17:26:59.670Z,11.57
2024-02-20T17:29:26.860Z,16.60
2024-02-20T17:31:55.657Z,18.02
2024-02-20T17:34:22.852Z,17.55
2024-02-20T17:36:51.985Z,12.73
2024-02-20T17:39:18.987Z,22.83
2024-02-20T17:41:45.673Z,15.13
2024-02-20T17:44:12.388Z,20.02
2024-02-20T17:46:39.644Z,15.38
2024-02-20T17:49:06.466Z,18.23
2024-02-20T17:51:33.761Z,19.80
2024-02-20T17:54:00.428Z,15.27
2024-02-20T17:56:27.104Z,14.95
2024-02-20T17:58:53.911Z,14.55
2024-02-20T18:01:22.695Z,24.60
2024-02-20T18:03:50.046Z,20.40
2024-02-20T18:06:17.048Z,22.70
2024-02-20T18:08:44.136Z,17.83
2024-02-20T18:11:13.432Z,21.13
2024-02-20T18:13:40.315Z,19.65
2024-02-20T18:16:07.717Z,20.02
2024-02-20T18:18:34.575Z,23.30
2024-02-20T18:21:02.562Z,13.35
2024-02-20T18:23:30.317Z,20.52
2024-02-20T18:25:57.701Z,22.65
2024-02-20T18:28:24.959Z,18.48
2024-02-20T18:30:51.764Z,19.08
2024-02-20T18:33:19.227Z,19.00
2024-02-20T18:35:46.613Z,10.82
2024-02-20T18:38:13.594Z,17.00
2024-02-20T18:40:40.452Z,21.58
2024-02-20T18:43:07.756Z,17.48
2024-02-20T18:45:35.179Z,11.85
2024-02-20T18:48:02.068Z,14.73
2024-02-20T18:50:29.015Z,16.58
2024-02-20T18:52:55.885Z,24.55
2024-02-20T18:55:22.731Z,26.25
2024-02-20T18:57:49.707Z,24.00
2024-02-20T19:00:16.745Z,15.23
2024-02-20T19:02:43.457Z,17.67
2024-02-20T19:05:10.463Z,22.35
2024-02-20T19:07:41.208Z,16.88
2024-02-20T19:10:11.894Z,12.82
2024-02-20T19:12:38.831Z,21.40
2024-02-20T19:15:06.409Z,16.80
2024-02-20T19:17:33.399Z,17.73
2024-02-20T19:20:01.744Z,19.73
2024-02-20T19:22:32.010Z,14.32
2024-02-20T19:25:01.172Z,18.70
2024-02-20T19:27:27.912Z,18.60
2024-02-20T19:29:57.538Z,20.08
2024-02-20T19:32:25.439Z,15.02
2024-02-20T19:34:52.178Z,19.75
2024-02-20T19:37:19.059Z,14.30
2024-02-20T19:39:45.793Z,17.90
2024-02-20T19:42:12.512Z,14.77
2024-02-20T19:44:40.422Z,19.92
2024-02-20T19:47:08.738Z,19.60
2024-02-20T19:49:35.740Z,18.98
2024-02-20T19:52:02.560Z,21.08
2024-02-20T19:54:29.370Z,15.70
2024-02-20T19:56:57.613Z,17.63
2024-02-20T19:59:24.371Z,18.33
2024-02-20T20:01:51.154Z,14.40
2024-02-20T20:04:18.038Z,23.58
2024-02-20T20:06:45.674Z,29.52
2024-02-20T20:09:14.413Z,22.70
2024-02-20T20:11:44.792Z,21.17
2024-02-20T20:14:12.284Z,23.05
2024-02-20T20:16:39.583Z,20.63
2024-02-20T20:19:10.174Z,22.27
2024-02-20T20:21:37.453Z,21.30
2024-02-20T20:24:13.861Z,26.52
2024-02-20T20:26:45.939Z,15.05
2024-02-20T20:29:12.757Z,21.70
2024-02-20T20:31:41.409Z,15.48
2024-02-20T20:34:08.438Z,18.08
2024-02-20T20:36:36.818Z,21.15
2024-02-20T20:39:06.075Z,16.85
2024-02-20T20:41:34.657Z,13.88
2024-02-20T20:44:01.686Z,13.68
2024-02-20T20:46:29.450Z,16.73
2024-02-20T20:48:56.312Z,17.02
2024-02-20T20:51:23.066Z,12.57
2024-02-20T20:53:49.779Z,18.77
2024-02-20T20:56:16.625Z,25.65
2024-02-20T20:58:43.580Z,21.85
2024-02-20T21:01:10.534Z,18.33
2024-02-20T21:03:37.300Z,22.02
2024-02-20T21:06:05.569Z,13.45
2024-02-20T21:08:32.608Z,14.82
2024-02-20T21:10:59.756Z,16.60
2024-02-20T21:13:27.148Z,15.93
2024-02-20T21:15:54.061Z,21.67
2024-02-20T21:18:20.850Z,13.80
2024-02-20T21:20:47.783Z,20.20
2024-02-20T21:23:18.579Z,16.98
2024-02-20T21:25:47.616Z,20.58
2024-02-20T21:28:14.752Z,19.42
2024-02-20T21:30:44.899Z,20.63
2024-02-20T21:33:12.409Z,16.52
2024-02-20T21:35:39.314Z,23.90
2024-02-20T21:38:07.668Z,21.67
2024-02-20T21:40:34.715Z,20.27
2024-02-20T21:43:01.558Z,22.10
2024-02-20T21:45:28.267Z,26.30
2024-02-20T21:47:56.172Z,25.40
2024-02-20T21:50:23.206Z,21.73
2024-02-20T21:52:51.785Z,23.88
2024-02-20T21:55:18.935Z,19.77
2024-02-20T21:57:45.671Z,21.38
2024-02-20T22:00:13.339Z,19.95
2024-02-20T22:02:40.227Z,21.83
2024-02-20T22:05:07.710Z,24.27
2024-02-20T22:07:34.706Z,23.77
2024-02-20T22:10:01.705Z,32.17
2024-02-20T22:12:28.567Z,23.75
2024-02-20T22:14:55.265Z,30.10
2024-02-20T22:17:21.994Z,19.20
2024-02-20T22:19:48.806Z,27.67
2024-02-20T22:22:15.764Z,19.85
2024-02-20T22:24:42.832Z,21.60
2024-02-20T22:27:10.693Z,32.47
2024-02-20T22:29:37.551Z,29.20
2024-02-20T22:32:04.970Z,25.42
2024-02-20T22:34:31.878Z,25.23
2024-02-20T22:36:58.666Z,26.40
2024-02-20T22:39:25.430Z,23.60
2024-02-20T22:41:52.300Z,26.20
2024-02-20T22:44:20.683Z,25.05
2024-02-20T22:46:49.660Z,27.85
2024-02-20T22:49:16.461Z,25.70
2024-02-20T22:51:43.185Z,22.50
2024-02-20T22:54:09.873Z,29.02
2024-02-20T22:56:36.705Z,28.95
2024-02-20T22:59:03.472Z,19.48
2024-02-20T23:01:31.520Z,26.30
2024-02-20T23:03:58.320Z,23.73
2024-02-20T23:06:25.297Z,25.52
2024-02-20T23:08:52.184Z,32.22
2024-02-20T23:11:19.007Z,25.55
2024-02-20T23:13:46.143Z,25.33
2024-02-20T23:16:12.977Z,26.02
2024-02-20T23:18:39.856Z,27.35
2024-02-20T23:21:06.579Z,25.90
2024-02-20T23:23:33.630Z,27.50
2024-02-20T23:26:00.477Z,21.92
2024-02-20T23:28:27.323Z,24.08
2024-02-20T23:30:54.088Z,18.48
2024-02-20T23:33:21.409Z,20.88
2024-02-20T23:35:48.199Z,23.02
2024-02-20T23:38:14.868Z,22.73
2024-02-20T23:40:41.516Z,28.42
2024-02-20T23:43:08.300Z,24.63
2024-02-20T23:45:34.985Z,24.08
2024-02-20T23:48:01.797Z,17.60
2024-02-20T23:50:28.512Z,26.88
2024-02-20T23:52:55.671Z,22.05
2024-02-20T23:55:23.450Z,21.52
2024-02-20T23:57:50.363Z,24.08
